Flight Number: EUR3070 Duration: 10:00
Departure: Lisboa / Portela (LPPT) at 07:30 Distance: 4163 Nm
Arrival: Rio de Janeiro (SBGL) at 17:30 Equipment: A340

Weather Information
Lisboa / Portela, Portugal (LPPT) 38-46N 009-08W 123M Jan 21, 2019 - 07:30 AM EST / 2019.01.21 1230 UTC
Wind: from the N (360 degrees) at 15 MPH (13 KT) (direction variable):0
Visibility: greater than 7 mile(s):0
Sky conditions: mostly clear Temperature: 55 F (13 C) Dew Point: 44 F (7 C) Relative Humidity: 66% Pressure (altimeter): 30.24 in. Hg (1024 hPa)
ob: LPPT 211230Z 36013KT 320V030 9999 FEW026 13/07 Q1024 cycle: 12
Sunrise: 07:53 Sunset: 17:42 (UTC)

Galeao, Brazil (SBGL) 22-49S 043-15W 42M Jan 21, 2019 - 07:00 AM EST / 2019.01.21 1200 UTC
Wind: from the NNE (030 degrees) at 8 MPH (7 KT):0
Visibility: greater than 7 mile(s):0 Temperature: 84 F (29 C) Dew Point: 75 F (24 C) Relative Humidity: 74% Pressure (altimeter): 29.94 in. Hg (1014 hPa)
ob: SBGL 211200Z 03007KT CAVOK 29/24 Q1014 cycle: 12
Sunrise: 08:28 Sunset: 21:40 (UTC)

TAF:2019/01/21 12:35 TAF SBGL 210830Z 2112/2218 05005KT 9999 SCT020 TN26/2208Z TX37/2216Z BECMG 2115/2117 14015KT FEW030 BECMG 2118/2120 17015KT SCT025 PROB30 2120/ 2123 7000 TSRA SCT025 FEW030CB BECMG 2200/2203 32010KT FEW030 BECMG 2205/ 2208 35005KT 8000 NSC BECMG 2213/2216 15015KT 9999 SCT040 RMK PGB

Previous Pireps for this route
Date Aircraft Flight time Fuel used Landing rate On time
2016-04-05A34008.45135994-163Yes
(pireps marked green are flown by you)

Route map